createdAt,value
2018-12-23T00:01:15.862Z,8.10
2018-12-23T00:03:43.521Z,8.10
2018-12-23T00:06:11.256Z,8.10
2018-12-23T00:08:38.911Z,8.10
2018-12-23T00:11:06.481Z,8.10
2018-12-23T00:13:34.093Z,8.10
2018-12-23T00:16:01.672Z,8.20
2018-12-23T00:18:29.277Z,8.10
2018-12-23T00:20:56.889Z,8.10
2018-12-23T00:23:24.479Z,8.20
2018-12-23T00:25:52.087Z,8.20
2018-12-23T00:28:19.658Z,8.20
2018-12-23T00:30:47.270Z,8.20
2018-12-23T00:33:14.834Z,8.20
2018-12-23T00:35:42.437Z,8.20
2018-12-23T00:38:09.995Z,8.20
2018-12-23T00:40:37.641Z,8.20
2018-12-23T00:43:05.217Z,8.10
2018-12-23T00:45:32.827Z,8.20
2018-12-23T00:48:00.448Z,8.20
2018-12-23T00:50:28.008Z,8.20
2018-12-23T00:52:55.610Z,8.30
2018-12-23T00:55:23.185Z,8.20
2018-12-23T00:57:50.780Z,8.30
2018-12-23T01:00:18.369Z,8.30
2018-12-23T01:02:45.975Z,8.30
2018-12-23T01:05:13.545Z,8.30
2018-12-23T01:07:41.153Z,8.30
2018-12-23T01:10:08.731Z,8.30
2018-12-23T01:12:36.323Z,8.20
2018-12-23T01:15:05.285Z,8.20
2018-12-23T01:17:32.899Z,8.30
2018-12-23T01:20:00.547Z,8.30
2018-12-23T01:22:28.249Z,8.30
2018-12-23T01:24:55.855Z,8.20
2018-12-23T01:27:23.433Z,8.30
2018-12-23T01:29:51.032Z,8.30
2018-12-23T01:32:18.605Z,8.20
2018-12-23T01:34:46.212Z,8.20
2018-12-23T01:37:13.819Z,8.20
2018-12-23T01:39:41.386Z,8.20
2018-12-23T01:42:08.998Z,8.20
2018-12-23T01:44:36.598Z,8.20
2018-12-23T01:47:04.208Z,8.20
2018-12-23T01:49:31.784Z,8.20
2018-12-23T01:51:59.345Z,8.20
2018-12-23T01:54:26.954Z,8.20
2018-12-23T01:56:54.515Z,8.30
2018-12-23T01:59:22.120Z,8.30
2018-12-23T02:01:49.682Z,8.30
2018-12-23T02:04:17.288Z,8.30
2018-12-23T02:06:44.888Z,8.30
2018-12-23T02:09:12.457Z,8.30
2018-12-23T02:11:40.062Z,8.30
2018-12-23T02:14:07.628Z,8.30
2018-12-23T02:16:35.189Z,8.30
2018-12-23T02:19:02.801Z,8.30
2018-12-23T02:21:30.396Z,8.30
2018-12-23T02:23:58.004Z,8.30
2018-12-23T02:26:25.608Z,8.30
2018-12-23T02:28:53.193Z,8.30
2018-12-23T02:31:20.789Z,8.20
2018-12-23T02:33:48.393Z,8.20
2018-12-23T02:36:16.012Z,8.20
2018-12-23T02:38:43.665Z,8.20
2018-12-23T02:41:11.275Z,8.30
2018-12-23T02:43:38.852Z,8.20
2018-12-23T02:46:06.460Z,8.20
2018-12-23T02:48:34.061Z,8.20
2018-12-23T02:51:01.637Z,8.20
2018-12-23T02:53:29.236Z,8.20
2018-12-23T02:55:56.805Z,8.20
2018-12-23T02:58:24.396Z,8.20
2018-12-23T03:00:52.002Z,8.20
2018-12-23T03:03:19.586Z,8.20
2018-12-23T03:05:47.192Z,8.20
2018-12-23T03:08:14.819Z,8.20
2018-12-23T03:10:42.428Z,8.10
2018-12-23T03:13:10.001Z,8.10
2018-12-23T03:15:37.616Z,8.00
2018-12-23T03:18:05.182Z,8.00
2018-12-23T03:20:32.801Z,8.00
2018-12-23T03:23:00.369Z,8.00
2018-12-23T03:25:27.947Z,8.00
2018-12-23T03:27:55.660Z,8.00
2018-12-23T03:30:23.258Z,7.90
2018-12-23T03:32:50.861Z,7.90
2018-12-23T03:35:18.460Z,7.90
2018-12-23T03:37:46.077Z,7.90
2018-12-23T03:40:13.644Z,7.90
2018-12-23T03:42:41.277Z,7.90
2018-12-23T03:45:08.944Z,7.90
2018-12-23T03:47:36.517Z,7.90
2018-12-23T03:50:05.403Z,7.80
2018-12-23T03:52:32.978Z,7.80
2018-12-23T03:55:00.593Z,7.80
2018-12-23T03:57:28.161Z,7.80
2018-12-23T03:59:55.725Z,7.80
2018-12-23T04:02:23.340Z,7.80
2018-12-23T04:04:50.917Z,7.80
2018-12-23T04:07:18.525Z,7.70
2018-12-23T04:09:46.085Z,7.70
2018-12-23T04:12:13.690Z,7.70
2018-12-23T04:14:41.297Z,7.70
2018-12-23T04:17:08.915Z,7.70
2018-12-23T04:19:36.517Z,7.70
2018-12-23T04:22:04.123Z,7.80
2018-12-23T04:24:31.697Z,7.80
2018-12-23T04:26:59.304Z,7.80
2018-12-23T04:29:26.869Z,7.90
2018-12-23T04:31:54.479Z,7.90
2018-12-23T04:34:22.040Z,7.90
2018-12-23T04:36:49.643Z,7.90
2018-12-23T04:39:17.203Z,7.90
2018-12-23T04:41:44.823Z,7.90
2018-12-23T04:44:12.391Z,7.90
2018-12-23T04:46:40.036Z,7.90
2018-12-23T04:49:07.648Z,7.90
2018-12-23T04:51:35.216Z,7.90
2018-12-23T04:54:02.807Z,7.90
2018-12-23T04:56:30.404Z,7.80
2018-12-23T04:58:57.973Z,7.80
2018-12-23T05:01:25.584Z,7.70
2018-12-23T05:03:53.189Z,7.70
2018-12-23T05:06:20.757Z,7.70
2018-12-23T05:08:48.370Z,7.70
2018-12-23T05:11:15.980Z,7.80
2018-12-23T05:13:43.536Z,7.80
2018-12-23T05:16:11.144Z,7.80
2018-12-23T05:18:38.711Z,7.80
2018-12-23T05:21:06.317Z,7.90
2018-12-23T05:23:33.881Z,7.90
2018-12-23T05:26:01.483Z,7.90
2018-12-23T05:28:29.050Z,8.00
2018-12-23T05:30:56.660Z,7.90
2018-12-23T05:33:24.281Z,7.90
2018-12-23T05:35:51.890Z,7.90
2018-12-23T05:38:19.470Z,8.00
2018-12-23T05:40:47.100Z,8.00
2018-12-23T05:43:14.664Z,8.00
2018-12-23T05:45:42.238Z,8.00
2018-12-23T05:48:09.862Z,8.00
2018-12-23T05:50:37.477Z,8.00
2018-12-23T05:53:05.054Z,8.00
2018-12-23T05:55:32.263Z,8.00
2018-12-23T05:57:59.828Z,8.00
2018-12-23T06:00:27.433Z,8.10
2018-12-23T06:02:55.040Z,8.10
2018-12-23T06:05:22.617Z,8.00
2018-12-23T06:07:50.231Z,8.10
2018-12-23T06:10:17.843Z,8.10
2018-12-23T06:12:45.411Z,8.10
2018-12-23T06:15:13.011Z,8.10
2018-12-23T06:17:40.622Z,8.10
2018-12-23T06:20:08.193Z,8.10
2018-12-23T06:22:35.790Z,8.10
2018-12-23T06:25:03.806Z,8.10
2018-12-23T06:27:31.454Z,8.10
2018-12-23T06:29:59.118Z,8.10
2018-12-23T06:32:26.726Z,8.10
2018-12-23T06:34:54.329Z,8.10
2018-12-23T06:37:21.896Z,8.10
2018-12-23T06:39:49.504Z,8.10
2018-12-23T06:42:17.074Z,8.10
2018-12-23T06:44:44.674Z,8.10
2018-12-23T06:47:12.276Z,8.10
2018-12-23T06:49:39.842Z,8.20
2018-12-23T06:52:07.419Z,8.20
2018-12-23T06:54:35.032Z,8.20
2018-12-23T06:57:02.642Z,8.20
2018-12-23T06:59:30.259Z,8.20
2018-12-23T07:01:57.829Z,8.20
2018-12-23T07:04:25.436Z,8.10
2018-12-23T07:06:53.053Z,8.20
2018-12-23T07:09:20.665Z,8.20
2018-12-23T07:11:48.334Z,8.10
2018-12-23T07:14:15.939Z,8.10
2018-12-23T07:16:43.560Z,8.10
2018-12-23T07:19:11.128Z,8.10
2018-12-23T07:21:39.959Z,8.10
2018-12-23T07:24:07.523Z,8.10
2018-12-23T07:26:35.121Z,8.10
2018-12-23T07:29:02.696Z,8.10
2018-12-23T07:31:30.311Z,8.10
2018-12-23T07:33:57.885Z,8.10
2018-12-23T07:36:25.496Z,8.10
2018-12-23T07:38:53.107Z,8.10
2018-12-23T07:41:20.720Z,8.10
2018-12-23T07:43:48.305Z,8.10
2018-12-23T07:46:15.918Z,8.10
2018-12-23T07:48:43.535Z,8.10
2018-12-23T07:51:11.100Z,8.20
2018-12-23T07:53:38.669Z,8.20
2018-12-23T07:56:06.273Z,8.10
2018-12-23T07:58:33.845Z,8.10
2018-12-23T08:01:01.444Z,8.20
2018-12-23T08:03:29.016Z,8.20
2018-12-23T08:05:57.038Z,8.20
2018-12-23T08:08:24.642Z,8.20
2018-12-23T08:10:52.349Z,8.20
2018-12-23T08:13:19.922Z,8.20
2018-12-23T08:15:47.505Z,8.20
2018-12-23T08:18:15.129Z,8.20
2018-12-23T08:20:42.781Z,8.20
2018-12-23T08:23:10.394Z,8.20
2018-12-23T08:25:37.981Z,8.20
2018-12-23T08:28:05.558Z,8.20
2018-12-23T08:30:33.154Z,8.30
2018-12-23T08:33:00.730Z,8.30
2018-12-23T08:35:28.303Z,8.30
2018-12-23T08:37:55.897Z,8.30
2018-12-23T08:40:23.467Z,8.30
2018-12-23T08:42:51.076Z,8.30
2018-12-23T08:45:18.641Z,8.30
2018-12-23T08:47:46.213Z,8.30
2018-12-23T08:50:13.834Z,8.40
2018-12-23T08:52:41.410Z,8.40
2018-12-23T08:55:09.002Z,8.40
2018-12-23T08:57:36.613Z,8.50
2018-12-23T09:00:05.381Z,8.50
2018-12-23T09:02:32.946Z,8.50
2018-12-23T09:05:00.559Z,8.50
2018-12-23T09:07:28.127Z,8.50
2018-12-23T09:09:57.182Z,8.50
2018-12-23T09:12:25.072Z,8.60
2018-12-23T09:14:52.645Z,8.60
2018-12-23T09:17:20.256Z,8.60
2018-12-23T09:19:48.799Z,8.60
2018-12-23T09:22:16.396Z,8.70
2018-12-23T09:24:44.006Z,8.70
2018-12-23T09:27:11.571Z,8.70
2018-12-23T09:29:39.176Z,8.80
2018-12-23T09:32:06.756Z,8.80
2018-12-23T09:34:34.362Z,8.80
2018-12-23T09:37:01.924Z,8.90
2018-12-23T09:39:29.519Z,8.90
2018-12-23T09:41:57.180Z,9.00
2018-12-23T09:44:24.798Z,9.00
2018-12-23T09:46:52.366Z,9.10
2018-12-23T09:49:19.969Z,9.10
2018-12-23T09:51:47.576Z,9.10
2018-12-23T09:54:15.142Z,9.20
2018-12-23T09:56:42.736Z,9.20
2018-12-23T09:59:10.411Z,9.20
2018-12-23T10:01:38.040Z,9.30
2018-12-23T10:04:05.609Z,9.40
2018-12-23T10:06:33.176Z,9.30
2018-12-23T10:09:00.788Z,9.40
2018-12-23T10:11:28.355Z,9.40
2018-12-23T10:13:55.963Z,9.40
2018-12-23T10:16:23.528Z,9.40
2018-12-23T10:18:51.149Z,9.40
2018-12-23T10:21:18.717Z,9.40
2018-12-23T10:23:46.289Z,9.40
2018-12-23T10:26:13.897Z,9.40
2018-12-23T10:28:41.468Z,9.40
2018-12-23T10:31:09.086Z,9.40
2018-12-23T10:33:36.780Z,9.40
2018-12-23T10:36:04.399Z,9.40
2018-12-23T10:38:31.969Z,9.40
2018-12-23T10:40:59.573Z,9.40
2018-12-23T10:43:27.176Z,9.40
2018-12-23T10:45:54.775Z,9.40
2018-12-23T10:48:22.340Z,9.40
2018-12-23T10:50:49.936Z,9.40
2018-12-23T10:53:17.552Z,9.40
2018-12-23T10:55:45.119Z,9.40
2018-12-23T10:58:12.726Z,9.40
2018-12-23T11:00:40.298Z,9.40
2018-12-23T11:03:07.903Z,9.30
2018-12-23T11:05:35.468Z,9.30
2018-12-23T11:08:03.085Z,9.30
2018-12-23T11:13:14.309Z,9.30
2018-12-23T11:15:43.074Z,9.30
2018-12-23T11:18:11.886Z,9.30
2018-12-23T11:20:40.961Z,9.20
2018-12-23T11:23:09.766Z,9.20
2018-12-23T11:25:38.543Z,9.20
2018-12-23T11:28:07.325Z,9.20
2018-12-23T11:30:36.017Z,9.20
2018-12-23T11:33:04.818Z,9.10
2018-12-23T11:35:33.692Z,9.10
2018-12-23T11:38:02.454Z,9.10
2018-12-23T11:40:31.444Z,9.10
2018-12-23T11:43:00.382Z,9.20
2018-12-23T11:45:29.090Z,9.10
2018-12-23T11:47:57.945Z,9.00
2018-12-23T11:50:26.752Z,9.00
2018-12-23T11:52:55.626Z,9.00
2018-12-23T11:55:24.624Z,9.00
2018-12-23T11:57:53.480Z,9.00
2018-12-23T12:00:22.458Z,9.00
2018-12-23T12:02:51.370Z,8.90
2018-12-23T12:05:20.160Z,8.90
2018-12-23T12:07:48.865Z,8.90
2018-12-23T12:10:17.617Z,8.90
2018-12-23T12:12:46.372Z,9.00
2018-12-23T12:15:15.538Z,9.10
2018-12-23T12:17:44.308Z,9.10
2018-12-23T12:20:13.051Z,9.00
2018-12-23T12:22:41.734Z,8.90
2018-12-23T12:25:10.547Z,8.90
2018-12-23T12:27:39.236Z,8.80
2018-12-23T12:30:08.236Z,8.80
2018-12-23T12:32:36.969Z,8.70
2018-12-23T12:35:05.841Z,8.70
2018-12-23T12:37:34.567Z,8.60
2018-12-23T12:40:03.332Z,8.60
2018-12-23T12:42:32.153Z,8.60
2018-12-23T12:45:00.889Z,8.60
2018-12-23T12:47:29.568Z,8.60
2018-12-23T12:49:58.378Z,8.60
2018-12-23T12:52:27.066Z,8.60
2018-12-23T12:54:55.790Z,8.60
2018-12-23T12:57:24.551Z,8.60
2018-12-23T12:59:53.248Z,8.50
2018-12-23T13:02:21.975Z,8.60
2018-12-23T13:04:50.674Z,8.60
2018-12-23T13:07:19.409Z,8.50
2018-12-23T13:09:48.100Z,8.60
2018-12-23T13:12:16.799Z,8.60
2018-12-23T13:14:45.540Z,8.60
2018-12-23T13:17:14.240Z,8.60
2018-12-23T13:19:42.967Z,8.60
2018-12-23T13:22:11.653Z,8.60
2018-12-23T13:24:40.399Z,8.70
2018-12-23T13:27:09.140Z,8.70
2018-12-23T13:29:37.986Z,8.70
2018-12-23T13:32:06.738Z,8.70
2018-12-23T13:34:35.462Z,8.70
2018-12-23T13:37:04.439Z,8.70
2018-12-23T13:39:33.182Z,8.70
2018-12-23T13:42:07.722Z,8.70
2018-12-23T13:44:54.597Z,8.60
